sensor_id;sensor_type;location;lat;lon;timestamp;P1;durP1;ratioP1;P2;durP2;ratioP2
49834;SDS011;35729;52.090;13.162;2022-07-22T00:00:52;6.13;;;5.53;;
49834;SDS011;35729;52.090;13.162;2022-07-22T00:03:21;6.45;;;5.45;;
49834;SDS011;35729;52.090;13.162;2022-07-22T00:05:49;6.05;;;5.45;;
49834;SDS011;35729;52.090;13.162;2022-07-22T00:08:18;6.32;;;5.72;;
49834;SDS011;35729;52.090;13.162;2022-07-22T00:10:46;8.90;;;5.65;;
49834;SDS011;35729;52.090;13.162;2022-07-22T00:13:15;6.88;;;5.80;;
49834;SDS011;35729;52.090;13.162;2022-07-22T00:15:43;5.70;;;5.20;;
49834;SDS011;35729;52.090;13.162;2022-07-22T00:18:14;6.55;;;6.03;;
49834;SDS011;35729;52.090;13.162;2022-07-22T00:20:43;7.55;;;5.75;;
49834;SDS011;35729;52.090;13.162;2022-07-22T00:23:12;6.90;;;6.32;;
49834;SDS011;35729;52.090;13.162;2022-07-22T00:25:40;5.88;;;5.32;;
49834;SDS011;35729;52.090;13.162;2022-07-22T00:28:09;7.13;;;5.32;;
49834;SDS011;35729;52.090;13.162;2022-07-22T00:30:37;6.15;;;5.15;;
49834;SDS011;35729;52.090;13.162;2022-07-22T00:33:06;5.70;;;5.20;;
49834;SDS011;35729;52.090;13.162;2022-07-22T00:35:37;5.05;;;4.65;;
49834;SDS011;35729;52.090;13.162;2022-07-22T00:38:05;5.32;;;4.82;;
49834;SDS011;35729;52.090;13.162;2022-07-22T00:40:34;5.47;;;4.95;;
49834;SDS011;35729;52.090;13.162;2022-07-22T00:43:02;5.28;;;4.78;;
49834;SDS011;35729;52.090;13.162;2022-07-22T00:45:31;4.93;;;4.53;;
49834;SDS011;35729;52.090;13.162;2022-07-22T00:48:00;5.07;;;4.57;;
49834;SDS011;35729;52.090;13.162;2022-07-22T00:50:28;6.90;;;5.13;;
49834;SDS011;35729;52.090;13.162;2022-07-22T00:53:00;5.63;;;5.13;;
49834;SDS011;35729;52.090;13.162;2022-07-22T00:55:28;6.22;;;5.20;;
49834;SDS011;35729;52.090;13.162;2022-07-22T00:57:57;5.22;;;4.72;;
49834;SDS011;35729;52.090;13.162;2022-07-22T01:00:26;5.47;;;4.97;;
49834;SDS011;35729;52.090;13.162;2022-07-22T01:02:54;5.20;;;4.55;;
49834;SDS011;35729;52.090;13.162;2022-07-22T01:05:23;9.25;;;5.10;;
49834;SDS011;35729;52.090;13.162;2022-07-22T01:07:52;6.13;;;5.20;;
49834;SDS011;35729;52.090;13.162;2022-07-22T01:10:23;5.72;;;5.22;;
49834;SDS011;35729;52.090;13.162;2022-07-22T01:12:52;5.45;;;4.95;;
49834;SDS011;35729;52.090;13.162;2022-07-22T01:15:21;5.45;;;4.95;;
49834;SDS011;35729;52.090;13.162;2022-07-22T01:17:49;6.45;;;5.20;;
49834;SDS011;35729;52.090;13.162;2022-07-22T01:20:20;4.88;;;4.47;;
49834;SDS011;35729;52.090;13.162;2022-07-22T01:22:50;5.07;;;4.67;;
49834;SDS011;35729;52.090;13.162;2022-07-22T01:25:19;4.63;;;3.90;;
49834;SDS011;35729;52.090;13.162;2022-07-22T01:27:48;5.22;;;4.40;;
49834;SDS011;35729;52.090;13.162;2022-07-22T01:30:16;5.53;;;4.15;;
49834;SDS011;35729;52.090;13.162;2022-07-22T01:32:45;5.07;;;4.10;;
49834;SDS011;35729;52.090;13.162;2022-07-22T01:35:14;5.28;;;4.22;;
49834;SDS011;35729;52.090;13.162;2022-07-22T01:37:45;4.63;;;3.95;;
49834;SDS011;35729;52.090;13.162;2022-07-22T01:40:13;3.60;;;3.30;;
49834;SDS011;35729;52.090;13.162;2022-07-22T01:42:42;4.32;;;3.92;;
49834;SDS011;35729;52.090;13.162;2022-07-22T01:45:10;4.30;;;3.90;;
49834;SDS011;35729;52.090;13.162;2022-07-22T01:47:39;4.00;;;3.70;;
49834;SDS011;35729;52.090;13.162;2022-07-22T01:50:08;5.65;;;3.40;;
49834;SDS011;35729;52.090;13.162;2022-07-22T01:52:38;4.47;;;4.07;;
49834;SDS011;35729;52.090;13.162;2022-07-22T01:55:10;4.32;;;3.88;;
49834;SDS011;35729;52.090;13.162;2022-07-22T01:57:39;3.80;;;3.22;;
49834;SDS011;35729;52.090;13.162;2022-07-22T02:00:08;3.67;;;3.30;;
49834;SDS011;35729;52.090;13.162;2022-07-22T02:02:38;4.00;;;3.63;;
49834;SDS011;35729;52.090;13.162;2022-07-22T02:05:07;4.18;;;3.65;;
49834;SDS011;35729;52.090;13.162;2022-07-22T02:07:36;4.47;;;4.07;;
49834;SDS011;35729;52.090;13.162;2022-07-22T02:10:05;4.50;;;4.10;;
49834;SDS011;35729;52.090;13.162;2022-07-22T02:12:37;4.68;;;4.22;;
49834;SDS011;35729;52.090;13.162;2022-07-22T02:15:06;4.70;;;4.03;;
49834;SDS011;35729;52.090;13.162;2022-07-22T02:17:35;4.28;;;3.88;;
49834;SDS011;35729;52.090;13.162;2022-07-22T02:20:05;4.68;;;3.80;;
49834;SDS011;35729;52.090;13.162;2022-07-22T02:22:34;5.00;;;3.97;;
49834;SDS011;35729;52.090;13.162;2022-07-22T02:25:03;4.90;;;3.60;;
49834;SDS011;35729;52.090;13.162;2022-07-22T02:27:32;4.97;;;4.22;;
49834;SDS011;35729;52.090;13.162;2022-07-22T02:30:03;5.82;;;4.18;;
49834;SDS011;35729;52.090;13.162;2022-07-22T02:32:33;4.53;;;4.13;;
49834;SDS011;35729;52.090;13.162;2022-07-22T02:35:02;5.15;;;4.65;;
49834;SDS011;35729;52.090;13.162;2022-07-22T02:37:31;5.43;;;4.93;;
49834;SDS011;35729;52.090;13.162;2022-07-22T02:40:00;5.20;;;4.70;;
49834;SDS011;35729;52.090;13.162;2022-07-22T02:42:28;5.05;;;4.65;;
49834;SDS011;35729;52.090;13.162;2022-07-22T02:44:57;6.03;;;5.28;;
49834;SDS011;35729;52.090;13.162;2022-07-22T02:47:28;8.57;;;5.22;;
49834;SDS011;35729;52.090;13.162;2022-07-22T02:49:57;5.68;;;5.18;;
49834;SDS011;35729;52.090;13.162;2022-07-22T02:52:25;5.30;;;4.80;;
49834;SDS011;35729;52.090;13.162;2022-07-22T02:54:54;5.45;;;4.95;;
49834;SDS011;35729;52.090;13.162;2022-07-22T02:57:22;5.38;;;4.88;;
49834;SDS011;35729;52.090;13.162;2022-07-22T02:59:51;7.05;;;5.97;;
49834;SDS011;35729;52.090;13.162;2022-07-22T03:02:19;6.32;;;5.75;;
49834;SDS011;35729;52.090;13.162;2022-07-22T03:04:50;5.88;;;5.32;;
49834;SDS011;35729;52.090;13.162;2022-07-22T03:07:19;5.82;;;5.32;;
49834;SDS011;35729;52.090;13.162;2022-07-22T03:09:47;6.55;;;5.60;;
49834;SDS011;35729;52.090;13.162;2022-07-22T03:12:16;6.35;;;5.75;;
49834;SDS011;35729;52.090;13.162;2022-07-22T03:14:44;6.57;;;5.97;;
49834;SDS011;35729;52.090;13.162;2022-07-22T03:17:13;6.70;;;5.72;;
49834;SDS011;35729;52.090;13.162;2022-07-22T03:19:41;6.47;;;5.78;;
49834;SDS011;35729;52.090;13.162;2022-07-22T03:22:12;6.50;;;5.90;;
49834;SDS011;35729;52.090;13.162;2022-07-22T03:24:41;6.57;;;5.60;;
49834;SDS011;35729;52.090;13.162;2022-07-22T03:27:09;6.47;;;5.88;;
49834;SDS011;35729;52.090;13.162;2022-07-22T03:29:38;5.70;;;5.20;;
49834;SDS011;35729;52.090;13.162;2022-07-22T03:32:06;6.53;;;5.00;;
49834;SDS011;35729;52.090;13.162;2022-07-22T03:34:35;5.82;;;5.20;;
49834;SDS011;35729;52.090;13.162;2022-07-22T03:37:03;5.80;;;5.30;;
49834;SDS011;35729;52.090;13.162;2022-07-22T03:39:35;5.80;;;5.30;;
49834;SDS011;35729;52.090;13.162;2022-07-22T03:42:03;6.43;;;5.85;;
49834;SDS011;35729;52.090;13.162;2022-07-22T03:44:32;6.30;;;5.70;;
49834;SDS011;35729;52.090;13.162;2022-07-22T03:47:01;7.13;;;6.40;;
49834;SDS011;35729;52.090;13.162;2022-07-22T03:49:29;13.93;;;6.10;;
49834;SDS011;35729;52.090;13.162;2022-07-22T03:51:58;7.03;;;6.13;;
49834;SDS011;35729;52.090;13.162;2022-07-22T03:54:27;7.40;;;6.30;;
49834;SDS011;35729;52.090;13.162;2022-07-22T03:56:58;5.85;;;5.25;;
49834;SDS011;35729;52.090;13.162;2022-07-22T03:59:26;6.95;;;6.30;;
49834;SDS011;35729;52.090;13.162;2022-07-22T04:01:55;7.97;;;6.18;;
49834;SDS011;35729;52.090;13.162;2022-07-22T04:04:23;6.85;;;6.25;;
49834;SDS011;35729;52.090;13.162;2022-07-22T04:06:52;7.10;;;6.50;;
49834;SDS011;35729;52.090;13.162;2022-07-22T04:09:20;7.30;;;6.50;;
49834;SDS011;35729;52.090;13.162;2022-07-22T04:11:49;7.20;;;6.50;;
49834;SDS011;35729;52.090;13.162;2022-07-22T04:14:20;8.32;;;6.43;;
49834;SDS011;35729;52.090;13.162;2022-07-22T04:16:49;7.32;;;6.57;;
49834;SDS011;35729;52.090;13.162;2022-07-22T04:19:18;7.57;;;6.88;;
49834;SDS011;35729;52.090;13.162;2022-07-22T04:21:47;8.18;;;7.35;;
49834;SDS011;35729;52.090;13.162;2022-07-22T04:24:15;7.80;;;7.10;;
49834;SDS011;35729;52.090;13.162;2022-07-22T04:26:44;10.50;;;7.97;;
49834;SDS011;35729;52.090;13.162;2022-07-22T04:29:12;9.15;;;7.63;;
49834;SDS011;35729;52.090;13.162;2022-07-22T04:31:57;7.45;;;6.80;;
49834;SDS011;35729;52.090;13.162;2022-07-22T04:34:26;8.63;;;7.75;;
49834;SDS011;35729;52.090;13.162;2022-07-22T04:36:54;8.80;;;8.00;;
49834;SDS011;35729;52.090;13.162;2022-07-22T04:39:23;7.53;;;6.68;;
49834;SDS011;35729;52.090;13.162;2022-07-22T04:41:51;8.30;;;7.50;;
49834;SDS011;35729;52.090;13.162;2022-07-22T04:44:20;9.15;;;8.25;;
49834;SDS011;35729;52.090;13.162;2022-07-22T04:46:48;9.30;;;8.40;;
49834;SDS011;35729;52.090;13.162;2022-07-22T04:49:19;7.90;;;7.03;;
49834;SDS011;35729;52.090;13.162;2022-07-22T04:51:48;8.48;;;7.72;;
49834;SDS011;35729;52.090;13.162;2022-07-22T04:54:17;8.98;;;8.18;;
49834;SDS011;35729;52.090;13.162;2022-07-22T04:56:45;9.00;;;8.10;;
49834;SDS011;35729;52.090;13.162;2022-07-22T04:59:14;11.40;;;8.88;;
49834;SDS011;35729;52.090;13.162;2022-07-22T05:01:42;8.70;;;7.80;;
49834;SDS011;35729;52.090;13.162;2022-07-22T05:04:11;9.85;;;8.57;;
49834;SDS011;35729;52.090;13.162;2022-07-22T05:06:42;10.68;;;9.57;;
49834;SDS011;35729;52.090;13.162;2022-07-22T05:09:10;10.10;;;9.10;;
49834;SDS011;35729;52.090;13.162;2022-07-22T05:11:39;9.23;;;8.20;;
49834;SDS011;35729;52.090;13.162;2022-07-22T05:14:07;9.18;;;8.20;;
49834;SDS011;35729;52.090;13.162;2022-07-22T05:16:36;9.50;;;8.63;;
49834;SDS011;35729;52.090;13.162;2022-07-22T05:19:05;9.00;;;8.10;;
49834;SDS011;35729;52.090;13.162;2022-07-22T05:21:57;7.90;;;7.20;;
49834;SDS011;35729;52.090;13.162;2022-07-22T05:24:26;8.63;;;7.72;;
49834;SDS011;35729;52.090;13.162;2022-07-22T05:26:55;8.00;;;7.28;;
49834;SDS011;35729;52.090;13.162;2022-07-22T05:29:23;8.00;;;7.22;;
49834;SDS011;35729;52.090;13.162;2022-07-22T05:31:52;8.10;;;6.88;;
49834;SDS011;35729;52.090;13.162;2022-07-22T05:34:20;7.93;;;7.22;;
49834;SDS011;35729;52.090;13.162;2022-07-22T05:37:04;7.65;;;7.00;;
49834;SDS011;35729;52.090;13.162;2022-07-22T05:39:33;8.15;;;7.25;;
49834;SDS011;35729;52.090;13.162;2022-07-22T05:42:01;8.73;;;7.50;;
49834;SDS011;35729;52.090;13.162;2022-07-22T05:44:30;8.60;;;7.38;;
49834;SDS011;35729;52.090;13.162;2022-07-22T05:46:59;7.70;;;6.72;;
49834;SDS011;35729;52.090;13.162;2022-07-22T05:49:27;8.13;;;6.93;;
49834;SDS011;35729;52.090;13.162;2022-07-22T05:51:56;8.57;;;7.22;;
49834;SDS011;35729;52.090;13.162;2022-07-22T05:54:28;7.60;;;6.40;;
49834;SDS011;35729;52.090;13.162;2022-07-22T05:56:57;7.47;;;6.57;;
49834;SDS011;35729;52.090;13.162;2022-07-22T05:59:26;6.32;;;5.72;;
49834;SDS011;35729;52.090;13.162;2022-07-22T06:01:54;6.57;;;5.97;;
49834;SDS011;35729;52.090;13.162;2022-07-22T06:04:23;7.97;;;6.53;;
49834;SDS011;35729;52.090;13.162;2022-07-22T06:06:51;6.25;;;5.65;;
49834;SDS011;35729;52.090;13.162;2022-07-22T06:09:20;9.85;;;8.82;;
49834;SDS011;35729;52.090;13.162;2022-07-22T06:11:51;6.82;;;6.22;;
49834;SDS011;35729;52.090;13.162;2022-07-22T06:14:20;6.35;;;5.78;;
49834;SDS011;35729;52.090;13.162;2022-07-22T06:16:48;6.45;;;5.88;;
49834;SDS011;35729;52.090;13.162;2022-07-22T06:19:17;5.80;;;5.30;;
49834;SDS011;35729;52.090;13.162;2022-07-22T06:21:45;7.80;;;6.05;;
49834;SDS011;35729;52.090;13.162;2022-07-22T06:24:14;6.18;;;5.65;;
49834;SDS011;35729;52.090;13.162;2022-07-22T06:26:42;5.47;;;4.75;;
49834;SDS011;35729;52.090;13.162;2022-07-22T06:29:14;5.65;;;5.15;;
49834;SDS011;35729;52.090;13.162;2022-07-22T06:31:43;6.03;;;5.53;;
49834;SDS011;35729;52.090;13.162;2022-07-22T06:34:11;5.25;;;4.80;;
49834;SDS011;35729;52.090;13.162;2022-07-22T06:36:40;5.35;;;4.93;;
49834;SDS011;35729;52.090;13.162;2022-07-22T06:39:08;5.75;;;5.18;;
49834;SDS011;35729;52.090;13.162;2022-07-22T06:41:37;5.53;;;5.03;;
49834;SDS011;35729;52.090;13.162;2022-07-22T06:44:06;5.70;;;5.20;;
49834;SDS011;35729;52.090;13.162;2022-07-22T06:46:37;6.47;;;5.78;;
49834;SDS011;35729;52.090;13.162;2022-07-22T06:49:05;6.03;;;4.93;;
49834;SDS011;35729;52.090;13.162;2022-07-22T06:51:34;5.13;;;4.70;;
49834;SDS011;35729;52.090;13.162;2022-07-22T06:54:03;4.68;;;4.28;;
49834;SDS011;35729;52.090;13.162;2022-07-22T06:56:31;5.00;;;4.60;;
49834;SDS011;35729;52.090;13.162;2022-07-22T06:59:00;6.78;;;4.07;;
49834;SDS011;35729;52.090;13.162;2022-07-22T07:01:28;4.53;;;4.13;;
49834;SDS011;35729;52.090;13.162;2022-07-22T07:04:00;4.43;;;4.00;;
49834;SDS011;35729;52.090;13.162;2022-07-22T07:06:28;4.63;;;4.22;;
49834;SDS011;35729;52.090;13.162;2022-07-22T07:08:57;4.68;;;4.22;;
49834;SDS011;35729;52.090;13.162;2022-07-22T07:11:25;5.45;;;4.40;;
49834;SDS011;35729;52.090;13.162;2022-07-22T07:13:54;4.78;;;4.38;;
49834;SDS011;35729;52.090;13.162;2022-07-22T07:16:23;4.40;;;4.00;;
49834;SDS011;35729;52.090;13.162;2022-07-22T07:18:51;5.15;;;3.88;;
49834;SDS011;35729;52.090;13.162;2022-07-22T07:21:22;4.18;;;3.85;;
49834;SDS011;35729;52.090;13.162;2022-07-22T07:23:51;5.13;;;4.22;;
49834;SDS011;35729;52.090;13.162;2022-07-22T07:26:19;4.90;;;4.47;;
49834;SDS011;35729;52.090;13.162;2022-07-22T07:28:48;4.70;;;4.30;;
49834;SDS011;35729;52.090;13.162;2022-07-22T07:31:17;4.65;;;4.13;;
49834;SDS011;35729;52.090;13.162;2022-07-22T07:33:45;4.20;;;3.90;;
49834;SDS011;35729;52.090;13.162;2022-07-22T07:36:14;4.85;;;4.45;;
49834;SDS011;35729;52.090;13.162;2022-07-22T07:38:45;4.78;;;4.18;;
49834;SDS011;35729;52.090;13.162;2022-07-22T07:41:14;4.78;;;4.30;;
49834;SDS011;35729;52.090;13.162;2022-07-22T07:43:43;4.07;;;3.67;;
49834;SDS011;35729;52.090;13.162;2022-07-22T07:46:11;5.05;;;4.20;;
49834;SDS011;35729;52.090;13.162;2022-07-22T07:48:40;4.05;;;3.38;;
49834;SDS011;35729;52.090;13.162;2022-07-22T07:51:08;4.63;;;4.22;;
49834;SDS011;35729;52.090;13.162;2022-07-22T07:53:37;4.85;;;4.07;;
49834;SDS011;35729;52.090;13.162;2022-07-22T07:56:08;4.15;;;3.83;;
49834;SDS011;35729;52.090;13.162;2022-07-22T07:58:37;4.63;;;4.22;;
49834;SDS011;35729;52.090;13.162;2022-07-22T08:01:06;4.57;;;3.72;;
49834;SDS011;35729;52.090;13.162;2022-07-22T08:03:34;3.95;;;3.65;;
49834;SDS011;35729;52.090;13.162;2022-07-22T08:06:03;3.85;;;3.28;;
49834;SDS011;35729;52.090;13.162;2022-07-22T08:08:32;4.18;;;3.47;;
49834;SDS011;35729;52.090;13.162;2022-07-22T08:11:01;5.95;;;3.78;;
49834;SDS011;35729;52.090;13.162;2022-07-22T08:13:32;4.25;;;3.28;;
49834;SDS011;35729;52.090;13.162;2022-07-22T08:16:13;5.00;;;4.15;;
49834;SDS011;35729;52.090;13.162;2022-07-22T08:18:41;3.75;;;3.35;;
49834;SDS011;35729;52.090;13.162;2022-07-22T08:21:10;3.95;;;3.53;;
49834;SDS011;35729;52.090;13.162;2022-07-22T08:23:38;3.10;;;2.80;;
49834;SDS011;35729;52.090;13.162;2022-07-22T08:26:07;3.30;;;3.03;;
49834;SDS011;35729;52.090;13.162;2022-07-22T08:28:38;3.53;;;3.22;;
49834;SDS011;35729;52.090;13.162;2022-07-22T08:31:07;3.28;;;2.97;;
49834;SDS011;35729;52.090;13.162;2022-07-22T08:33:35;3.28;;;3.00;;
49834;SDS011;35729;52.090;13.162;2022-07-22T08:36:04;3.47;;;3.17;;
49834;SDS011;35729;52.090;13.162;2022-07-22T08:38:33;3.28;;;2.80;;
49834;SDS011;35729;52.090;13.162;2022-07-22T08:41:02;6.20;;;3.33;;
49834;SDS011;35729;52.090;13.162;2022-07-22T08:43:34;4.57;;;3.05;;
49834;SDS011;35729;52.090;13.162;2022-07-22T08:46:07;3.15;;;2.85;;
49834;SDS011;35729;52.090;13.162;2022-07-22T08:48:36;3.60;;;3.30;;
49834;SDS011;35729;52.090;13.162;2022-07-22T08:51:04;4.05;;;3.13;;
49834;SDS011;35729;52.090;13.162;2022-07-22T08:53:33;4.57;;;3.03;;
49834;SDS011;35729;52.090;13.162;2022-07-22T08:56:02;4.38;;;3.10;;
49834;SDS011;35729;52.090;13.162;2022-07-22T08:58:31;3.53;;;2.80;;
49834;SDS011;35729;52.090;13.162;2022-07-22T09:01:09;3.45;;;3.15;;
49834;SDS011;35729;52.090;13.162;2022-07-22T09:03:45;4.32;;;3.10;;
49834;SDS011;35729;52.090;13.162;2022-07-22T09:06:15;4.00;;;3.60;;
49834;SDS011;35729;52.090;13.162;2022-07-22T09:08:49;4.78;;;2.70;;
49834;SDS011;35729;52.090;13.162;2022-07-22T09:11:20;3.80;;;3.30;;
49834;SDS011;35729;52.090;13.162;2022-07-22T09:13:50;2.85;;;2.40;;
49834;SDS011;35729;52.090;13.162;2022-07-22T09:19:08;3.72;;;2.47;;
49834;SDS011;35729;52.090;13.162;2022-07-22T09:21:38;2.90;;;2.60;;
49834;SDS011;35729;52.090;13.162;2022-07-22T09:24:08;2.55;;;2.30;;
49834;SDS011;35729;52.090;13.162;2022-07-22T09:26:53;2.88;;;2.50;;
49834;SDS011;35729;52.090;13.162;2022-07-22T09:29:23;2.50;;;2.30;;
49834;SDS011;35729;52.090;13.162;2022-07-22T09:31:55;3.35;;;2.47;;
49834;SDS011;35729;52.090;13.162;2022-07-22T09:34:27;3.20;;;2.30;;
49834;SDS011;35729;52.090;13.162;2022-07-22T09:39:27;3.25;;;2.78;;
49834;SDS011;35729;52.090;13.162;2022-07-22T09:41:57;3.20;;;2.90;;
49834;SDS011;35729;52.090;13.162;2022-07-22T09:44:26;3.00;;;2.72;;
49834;SDS011;35729;52.090;13.162;2022-07-22T09:46:57;2.88;;;2.63;;
49834;SDS011;35729;52.090;13.162;2022-07-22T09:49:30;3.47;;;2.88;;
49834;SDS011;35729;52.090;13.162;2022-07-22T09:51:59;4.28;;;3.13;;
49834;SDS011;35729;52.090;13.162;2022-07-22T09:54:28;4.75;;;3.28;;
49834;SDS011;35729;52.090;13.162;2022-07-22T09:56:57;5.10;;;3.22;;
49834;SDS011;35729;52.090;13.162;2022-07-22T09:59:26;4.50;;;2.95;;
49834;SDS011;35729;52.090;13.162;2022-07-22T10:01:58;3.40;;;3.05;;
49834;SDS011;35729;52.090;13.162;2022-07-22T10:04:29;3.35;;;3.05;;
49834;SDS011;35729;52.090;13.162;2022-07-22T10:07:01;3.67;;;2.55;;
49834;SDS011;35729;52.090;13.162;2022-07-22T10:09:30;3.50;;;3.00;;
49834;SDS011;35729;52.090;13.162;2022-07-22T10:11:59;2.92;;;2.72;;
49834;SDS011;35729;52.090;13.162;2022-07-22T10:14:29;3.22;;;2.92;;
49834;SDS011;35729;52.090;13.162;2022-07-22T10:17:01;3.03;;;2.72;;
49834;SDS011;35729;52.090;13.162;2022-07-22T10:19:30;4.57;;;2.90;;
49834;SDS011;35729;52.090;13.162;2022-07-22T10:21:59;2.80;;;2.60;;
49834;SDS011;35729;52.090;13.162;2022-07-22T10:24:28;3.17;;;2.88;;
49834;SDS011;35729;52.090;13.162;2022-07-22T10:26:57;5.03;;;2.88;;
49834;SDS011;35729;52.090;13.162;2022-07-22T10:29:27;2.72;;;2.53;;
49834;SDS011;35729;52.090;13.162;2022-07-22T10:37:54;4.95;;;2.97;;
49834;SDS011;35729;52.090;13.162;2022-07-22T10:40:25;2.50;;;2.30;;
49834;SDS011;35729;52.090;13.162;2022-07-22T10:45:42;2.13;;;1.92;;
49834;SDS011;35729;52.090;13.162;2022-07-22T10:48:14;2.20;;;2.00;;
49834;SDS011;35729;52.090;13.162;2022-07-22T10:50:49;2.60;;;2.40;;
49834;SDS011;35729;52.090;13.162;2022-07-22T10:53:21;2.40;;;2.20;;
49834;SDS011;35729;52.090;13.162;2022-07-22T10:55:58;2.00;;;1.80;;
49834;SDS011;35729;52.090;13.162;2022-07-22T10:58:39;2.20;;;1.75;;
49834;SDS011;35729;52.090;13.162;2022-07-22T11:01:10;2.97;;;1.75;;
49834;SDS011;35729;52.090;13.162;2022-07-22T11:03:40;2.67;;;1.52;;
49834;SDS011;35729;52.090;13.162;2022-07-22T11:06:21;1.80;;;1.70;;
49834;SDS011;35729;52.090;13.162;2022-07-22T11:08:53;2.38;;;1.83;;
49834;SDS011;35729;52.090;13.162;2022-07-22T11:11:32;1.73;;;1.63;;
49834;SDS011;35729;52.090;13.162;2022-07-22T11:14:03;1.50;;;1.40;;
49834;SDS011;35729;52.090;13.162;2022-07-22T11:16:38;1.60;;;1.50;;
49834;SDS011;35729;52.090;13.162;2022-07-22T11:19:07;1.90;;;1.80;;
49834;SDS011;35729;52.090;13.162;2022-07-22T11:21:38;1.80;;;1.70;;
49834;SDS011;35729;52.090;13.162;2022-07-22T11:24:07;1.83;;;1.73;;
49834;SDS011;35729;52.090;13.162;2022-07-22T11:26:39;2.10;;;1.88;;
49834;SDS011;35729;52.090;13.162;2022-07-22T11:29:12;2.00;;;1.90;;
49834;SDS011;35729;52.090;13.162;2022-07-22T11:31:44;1.70;;;1.60;;
49834;SDS011;35729;52.090;13.162;2022-07-22T11:34:14;1.65;;;1.55;;
49834;SDS011;35729;52.090;13.162;2022-07-22T11:36:48;2.33;;;2.03;;
49834;SDS011;35729;52.090;13.162;2022-07-22T11:39:18;1.90;;;1.70;;
49834;SDS011;35729;52.090;13.162;2022-07-22T11:41:48;2.55;;;2.35;;
49834;SDS011;35729;52.090;13.162;2022-07-22T11:44:17;2.80;;;2.05;;
49834;SDS011;35729;52.090;13.162;2022-07-22T11:46:46;2.50;;;2.30;;
49834;SDS011;35729;52.090;13.162;2022-07-22T11:49:18;1.77;;;1.67;;
49834;SDS011;35729;52.090;13.162;2022-07-22T11:51:50;2.47;;;1.90;;
49834;SDS011;35729;52.090;13.162;2022-07-22T11:54:19;2.30;;;2.20;;
49834;SDS011;35729;52.090;13.162;2022-07-22T11:56:48;2.30;;;2.10;;
49834;SDS011;35729;52.090;13.162;2022-07-22T11:59:17;1.95;;;1.85;;
49834;SDS011;35729;52.090;13.162;2022-07-22T12:01:47;2.13;;;1.92;;
49834;SDS011;35729;52.090;13.162;2022-07-22T12:04:19;2.50;;;2.20;;
49834;SDS011;35729;52.090;13.162;2022-07-22T12:06:53;2.40;;;2.20;;
49834;SDS011;35729;52.090;13.162;2022-07-22T12:09:23;2.83;;;2.23;;
49834;SDS011;35729;52.090;13.162;2022-07-22T12:11:54;2.60;;;2.40;;
49834;SDS011;35729;52.090;13.162;2022-07-22T12:14:24;2.35;;;2.03;;
49834;SDS011;35729;52.090;13.162;2022-07-22T12:16:54;2.47;;;2.28;;
49834;SDS011;35729;52.090;13.162;2022-07-22T12:19:25;4.32;;;2.42;;
49834;SDS011;35729;52.090;13.162;2022-07-22T12:22:00;2.80;;;2.50;;
49834;SDS011;35729;52.090;13.162;2022-07-22T12:24:31;3.05;;;2.70;;
49834;SDS011;35729;52.090;13.162;2022-07-22T12:27:01;2.67;;;2.47;;
49834;SDS011;35729;52.090;13.162;2022-07-22T12:29:41;2.25;;;2.05;;
49834;SDS011;35729;52.090;13.162;2022-07-22T12:32:14;2.65;;;2.45;;
49834;SDS011;35729;52.090;13.162;2022-07-22T12:34:45;2.40;;;2.20;;
49834;SDS011;35729;52.090;13.162;2022-07-22T12:37:18;3.67;;;2.17;;
49834;SDS011;35729;52.090;13.162;2022-07-22T12:39:53;2.10;;;2.00;;
49834;SDS011;35729;52.090;13.162;2022-07-22T12:42:23;2.20;;;2.00;;
49834;SDS011;35729;52.090;13.162;2022-07-22T12:44:53;3.30;;;2.28;;
49834;SDS011;35729;52.090;13.162;2022-07-22T12:47:40;4.53;;;2.30;;
49834;SDS011;35729;52.090;13.162;2022-07-22T12:50:20;3.13;;;2.30;;
49834;SDS011;35729;52.090;13.162;2022-07-22T12:53:01;2.67;;;2.47;;
49834;SDS011;35729;52.090;13.162;2022-07-22T12:55:32;2.30;;;2.10;;
49834;SDS011;35729;52.090;13.162;2022-07-22T12:58:02;2.42;;;1.90;;
49834;SDS011;35729;52.090;13.162;2022-07-22T13:00:33;2.17;;;1.75;;
49834;SDS011;35729;52.090;13.162;2022-07-22T13:03:03;3.88;;;1.80;;
49834;SDS011;35729;52.090;13.162;2022-07-22T13:05:33;2.88;;;2.30;;
49834;SDS011;35729;52.090;13.162;2022-07-22T13:08:05;1.70;;;1.60;;
49834;SDS011;35729;52.090;13.162;2022-07-22T13:10:34;2.95;;;1.80;;
49834;SDS011;35729;52.090;13.162;2022-07-22T13:13:02;3.00;;;1.42;;
49834;SDS011;35729;52.090;13.162;2022-07-22T13:15:31;1.30;;;1.20;;
49834;SDS011;35729;52.090;13.162;2022-07-22T13:17:59;1.85;;;1.33;;
49834;SDS011;35729;52.090;13.162;2022-07-22T13:20:28;2.53;;;1.52;;
49834;SDS011;35729;52.090;13.162;2022-07-22T13:22:56;1.58;;;1.35;;
49834;SDS011;35729;52.090;13.162;2022-07-22T13:25:28;3.22;;;1.80;;
49834;SDS011;35729;52.090;13.162;2022-07-22T13:27:57;1.40;;;1.20;;
49834;SDS011;35729;52.090;13.162;2022-07-22T13:30:26;2.88;;;1.38;;
49834;SDS011;35729;52.090;13.162;2022-07-22T13:32:55;1.90;;;1.10;;
49834;SDS011;35729;52.090;13.162;2022-07-22T13:35:23;1.20;;;1.00;;
49834;SDS011;35729;52.090;13.162;2022-07-22T13:37:52;1.10;;;1.00;;
49834;SDS011;35729;52.090;13.162;2022-07-22T13:40:20;1.73;;;1.15;;
49834;SDS011;35729;52.090;13.162;2022-07-22T13:42:52;1.30;;;1.20;;
49834;SDS011;35729;52.090;13.162;2022-07-22T13:45:20;2.78;;;1.05;;
49834;SDS011;35729;52.090;13.162;2022-07-22T13:47:49;0.88;;;0.88;;
49834;SDS011;35729;52.090;13.162;2022-07-22T13:50:17;1.30;;;1.20;;
49834;SDS011;35729;52.090;13.162;2022-07-22T13:52:53;1.30;;;1.10;;
49834;SDS011;35729;52.090;13.162;2022-07-22T13:55:21;1.50;;;1.20;;
49834;SDS011;35729;52.090;13.162;2022-07-22T13:57:52;1.40;;;1.30;;
49834;SDS011;35729;52.090;13.162;2022-07-22T14:00:22;3.67;;;1.33;;
49834;SDS011;35729;52.090;13.162;2022-07-22T14:02:51;1.92;;;1.05;;
49834;SDS011;35729;52.090;13.162;2022-07-22T14:05:20;1.30;;;1.20;;
49834;SDS011;35729;52.090;13.162;2022-07-22T14:07:49;1.70;;;1.23;;
49834;SDS011;35729;52.090;13.162;2022-07-22T14:10:17;3.03;;;1.10;;
49834;SDS011;35729;52.090;13.162;2022-07-22T14:12:46;1.58;;;1.48;;
49834;SDS011;35729;52.090;13.162;2022-07-22T14:15:23;2.30;;;1.25;;
49834;SDS011;35729;52.090;13.162;2022-07-22T14:17:52;1.20;;;1.10;;
49834;SDS011;35729;52.090;13.162;2022-07-22T14:20:26;1.40;;;1.30;;
49834;SDS011;35729;52.090;13.162;2022-07-22T14:22:55;1.67;;;1.52;;
49834;SDS011;35729;52.090;13.162;2022-07-22T14:25:23;1.90;;;1.60;;
49834;SDS011;35729;52.090;13.162;2022-07-22T14:27:52;1.50;;;1.40;;
49834;SDS011;35729;52.090;13.162;2022-07-22T14:30:24;3.05;;;1.40;;
49834;SDS011;35729;52.090;13.162;2022-07-22T14:32:53;1.60;;;1.50;;
49834;SDS011;35729;52.090;13.162;2022-07-22T14:35:22;1.58;;;1.23;;
49834;SDS011;35729;52.090;13.162;2022-07-22T14:37:50;1.55;;;1.40;;
49834;SDS011;35729;52.090;13.162;2022-07-22T14:40:19;2.90;;;1.45;;
49834;SDS011;35729;52.090;13.162;2022-07-22T14:42:48;1.45;;;1.33;;
49834;SDS011;35729;52.090;13.162;2022-07-22T14:45:16;1.48;;;1.38;;
49834;SDS011;35729;52.090;13.162;2022-07-22T14:47:47;1.65;;;1.38;;
49834;SDS011;35729;52.090;13.162;2022-07-22T14:50:16;1.80;;;1.55;;
49834;SDS011;35729;52.090;13.162;2022-07-22T14:52:44;5.57;;;1.67;;
49834;SDS011;35729;52.090;13.162;2022-07-22T14:55:14;2.25;;;1.60;;
49834;SDS011;35729;52.090;13.162;2022-07-22T14:57:42;1.70;;;1.50;;
49834;SDS011;35729;52.090;13.162;2022-07-22T15:00:11;3.42;;;1.48;;
49834;SDS011;35729;52.090;13.162;2022-07-22T15:02:40;3.65;;;1.88;;